Time;durP1;ratioP1;P1;durP2;ratioP2;P2;SDS_P1;SDS_P2;PMS_P1;PMS_P2;Temp;Humidity;BMP_temperature;BMP_pressure;BME280_temperature;BME280_humidity;BME280_pressure;Samples;Min_cycle;Max_cycle;Signal;HPM_P1;HPM_P2
2022/11/23 00:01:32;;;;;;;13.10;7.20;;;;;;;;;;5015117;28;20721;-67
2022/11/23 00:04:01;;;;;;;17.90;7.80;;;;;;;;;;5023650;28;20190;-67
2022/11/23 00:06:27;;;;;;;11.77;7.75;;;;;;;;;;5018682;28;20192;-68
2022/11/23 00:08:53;;;;;;;13.15;7.82;;;;;;;;;;5015390;28;20187;-68
2022/11/23 00:11:20;;;;;;;12.55;7.90;;;;;;;;;;5026554;28;20260;-67
2022/11/23 00:13:46;;;;;;;12.75;7.95;;;;;;;;;;5030131;28;20198;-67
2022/11/23 00:16:14;;;;;;;11.25;7.55;;;;;;;;;;5029633;28;20260;-67
2022/11/23 00:18:40;;;;;;;16.45;7.47;;;;;;;;;;5021786;28;20186;-68
2022/11/23 00:21:08;;;;;;;12.38;7.65;;;;;;;;;;5022556;28;20716;-68
2022/11/23 00:23:34;;;;;;;11.38;7.20;;;;;;;;;;5010918;28;20178;-68
2022/11/23 00:25:59;;;;;;;11.50;6.97;;;;;;;;;;5018775;28;20456;-68
2022/11/23 00:28:24;;;;;;;13.27;7.20;;;;;;;;;;5019318;28;20673;-68
2022/11/23 00:30:50;;;;;;;16.85;7.65;;;;;;;;;;5022091;28;20204;-68
2022/11/23 00:33:16;;;;;;;11.32;7.20;;;;;;;;;;5020144;28;20666;-67
2022/11/23 00:35:41;;;;;;;13.68;7.43;;;;;;;;;;5028438;28;20344;-67
2022/11/23 00:38:07;;;;;;;14.88;7.50;;;;;;;;;;5014862;28;20191;-67
2022/11/23 00:40:32;;;;;;;10.45;7.50;;;;;;;;;;5022785;28;20214;-67
2022/11/23 00:42:57;;;;;;;15.98;7.47;;;;;;;;;;5028333;28;20181;-67
2022/11/23 00:45:23;;;;;;;14.60;8.02;;;;;;;;;;5015444;28;20178;-68
2022/11/23 00:47:48;;;;;;;15.35;7.85;;;;;;;;;;5027323;28;20186;-68
2022/11/23 00:50:14;;;;;;;13.27;8.85;;;;;;;;;;5016669;28;20303;-67
2022/11/23 00:52:39;;;;;;;12.43;7.40;;;;;;;;;;5021686;28;20553;-67
2022/11/23 00:55:05;;;;;;;11.63;7.85;;;;;;;;;;5016169;28;20213;-67
2022/11/23 00:57:32;;;;;;;10.20;7.68;;;;;;;;;;5020216;28;20179;-67
2022/11/23 00:59:57;;;;;;;13.40;7.72;;;;;;;;;;5017350;28;20223;-68
2022/11/23 01:02:23;;;;;;;11.85;8.23;;;;;;;;;;5023735;28;20179;-68
2022/11/23 01:04:48;;;;;;;14.82;8.60;;;;;;;;;;5026543;28;20186;-68
2022/11/23 01:07:13;;;;;;;14.30;8.52;;;;;;;;;;5023312;28;20333;-68
2022/11/23 01:09:39;;;;;;;10.50;8.05;;;;;;;;;;5025370;28;20190;-68
2022/11/23 01:12:04;;;;;;;14.50;8.05;;;;;;;;;;5025982;28;20213;-68
2022/11/23 01:14:30;;;;;;;13.32;8.38;;;;;;;;;;5028974;28;20642;-67
2022/11/23 01:16:55;;;;;;;17.13;9.05;;;;;;;;;;5020804;28;20218;-67
2022/11/23 01:19:20;;;;;;;13.55;8.25;;;;;;;;;;5024127;28;20214;-67
2022/11/23 01:21:46;;;;;;;14.50;8.75;;;;;;;;;;5018611;28;20542;-67
2022/11/23 01:24:15;;;;;;;16.90;8.68;;;;;;;;;;5026364;28;20179;-67
2022/11/23 01:26:40;;;;;;;14.93;8.73;;;;;;;;;;5017107;28;20633;-67
2022/11/23 01:29:06;;;;;;;13.85;8.75;;;;;;;;;;5013544;28;20179;-67
2022/11/23 01:31:31;;;;;;;15.43;8.80;;;;;;;;;;5014017;28;20658;-67
2022/11/23 01:33:59;;;;;;;16.70;9.15;;;;;;;;;;5025106;28;20210;-67
2022/11/23 01:36:27;;;;;;;15.10;9.77;;;;;;;;;;5020722;28;20653;-67
2022/11/23 01:38:53;;;;;;;17.70;9.07;;;;;;;;;;5023349;28;20182;-67
2022/11/23 01:41:28;;;;;;;14.50;8.85;;;;;;;;;;5014376;28;20195;-67
2022/11/23 01:43:54;;;;;;;13.30;8.57;;;;;;;;;;5016602;28;20219;-67
2022/11/23 01:46:20;;;;;;;14.68;9.73;;;;;;;;;;5011026;28;20191;-68
2022/11/23 01:49:02;;;;;;;17.77;10.10;;;;;;;;;;5012721;28;20550;-68
2022/11/23 01:51:35;;;;;;;14.40;9.30;;;;;;;;;;5010675;28;20526;-68
2022/11/23 01:54:06;;;;;;;13.48;8.68;;;;;;;;;;5023741;28;20285;-68
2022/11/23 01:56:36;;;;;;;15.50;9.43;;;;;;;;;;5026828;28;20265;-68
2022/11/23 01:59:07;;;;;;;17.10;9.20;;;;;;;;;;5024684;28;20182;-67
2022/11/23 02:01:32;;;;;;;15.00;9.52;;;;;;;;;;5016662;28;20189;-68
2022/11/23 02:03:59;;;;;;;17.02;10.18;;;;;;;;;;5024715;28;20191;-68
2022/11/23 02:06:25;;;;;;;15.48;9.38;;;;;;;;;;5024177;28;20255;-67
2022/11/23 02:08:51;;;;;;;19.38;9.68;;;;;;;;;;5016112;28;20650;-67
2022/11/23 02:11:17;;;;;;;17.75;9.40;;;;;;;;;;5022134;28;20660;-68
2022/11/23 02:13:44;;;;;;;17.65;9.68;;;;;;;;;;5017494;28;20293;-67
2022/11/23 02:16:10;;;;;;;18.50;9.98;;;;;;;;;;5016895;28;20197;-67
2022/11/23 02:18:37;;;;;;;18.10;9.82;;;;;;;;;;5015514;28;20186;-67
2022/11/23 02:21:04;;;;;;;16.93;10.07;;;;;;;;;;5014706;28;20244;-67
2022/11/23 02:23:57;;;;;;;21.30;9.88;;;;;;;;;;5018891;28;20193;-67
2022/11/23 02:26:29;;;;;;;20.00;10.37;;;;;;;;;;5011628;28;20623;-67
2022/11/23 02:29:09;;;;;;;20.42;10.13;;;;;;;;;;5027804;28;20209;-67
2022/11/23 02:31:35;;;;;;;19.77;11.18;;;;;;;;;;5025085;28;20230;-67
2022/11/23 02:34:00;;;;;;;22.00;11.07;;;;;;;;;;5025130;28;20258;-66
2022/11/23 02:36:40;;;;;;;22.33;11.93;;;;;;;;;;5023121;28;20269;-66
2022/11/23 02:39:17;;;;;;;21.70;12.07;;;;;;;;;;5011559;28;20189;-66
2022/11/23 02:41:46;;;;;;;24.05;10.57;;;;;;;;;;5015808;28;20232;-66
2022/11/23 02:44:26;;;;;;;21.38;11.98;;;;;;;;;;5018435;28;20225;-66
2022/11/23 02:46:52;;;;;;;26.52;11.13;;;;;;;;;;5013964;28;20311;-66
2022/11/23 02:49:18;;;;;;;22.83;11.03;;;;;;;;;;5012579;28;20301;-66
2022/11/23 02:51:43;;;;;;;18.50;11.07;;;;;;;;;;5011009;28;20277;-66
2022/11/23 02:54:09;;;;;;;18.95;11.13;;;;;;;;;;5018130;28;20194;-66
2022/11/23 02:56:34;;;;;;;22.05;10.82;;;;;;;;;;5021542;28;20228;-67
2022/11/23 02:58:59;;;;;;;19.83;10.65;;;;;;;;;;5012867;28;20205;-67
2022/11/23 03:01:25;;;;;;;18.48;10.88;;;;;;;;;;5014393;28;20209;-67
2022/11/23 03:03:51;;;;;;;24.05;10.02;;;;;;;;;;5016544;28;20193;-67
2022/11/23 03:06:16;;;;;;;21.52;10.63;;;;;;;;;;5021322;28;20186;-67
2022/11/23 03:08:41;;;;;;;19.90;10.80;;;;;;;;;;5018358;28;20194;-67
2022/11/23 03:11:06;;;;;;;20.70;10.55;;;;;;;;;;5021605;28;20260;-67
2022/11/23 03:13:32;;;;;;;22.42;10.98;;;;;;;;;;5019203;28;20210;-67
2022/11/23 03:15:57;;;;;;;24.05;11.40;;;;;;;;;;5017368;28;20213;-67
2022/11/23 03:18:24;;;;;;;21.25;10.50;;;;;;;;;;5023136;28;20288;-67
2022/11/23 03:20:49;;;;;;;19.90;10.20;;;;;;;;;;5015110;28;20194;-67
2022/11/23 03:23:14;;;;;;;24.65;10.95;;;;;;;;;;5022380;28;20661;-67
2022/11/23 03:25:40;;;;;;;26.38;11.13;;;;;;;;;;5015409;28;20607;-67
2022/11/23 03:28:05;;;;;;;21.63;10.73;;;;;;;;;;5018683;28;20281;-67
2022/11/23 03:30:30;;;;;;;22.30;10.25;;;;;;;;;;5019234;28;20178;-66
2022/11/23 03:32:56;;;;;;;19.48;9.90;;;;;;;;;;5024306;28;20636;-67
2022/11/23 03:35:21;;;;;;;21.83;9.88;;;;;;;;;;5012718;28;20643;-67
2022/11/23 03:37:47;;;;;;;16.25;8.80;;;;;;;;;;5021203;28;20344;-67
2022/11/23 03:40:12;;;;;;;24.60;9.13;;;;;;;;;;5027610;28;20218;-66
2022/11/23 03:42:40;;;;;;;26.73;9.25;;;;;;;;;;5021442;28;20182;-66
2022/11/23 03:45:07;;;;;;;21.40;8.23;;;;;;;;;;5016900;28;20178;-66
2022/11/23 03:47:32;;;;;;;24.33;8.82;;;;;;;;;;5022108;28;20565;-66
2022/11/23 03:49:58;;;;;;;21.77;8.05;;;;;;;;;;5016916;28;20495;-66
2022/11/23 03:52:23;;;;;;;19.98;7.65;;;;;;;;;;5020334;28;20201;-67
2022/11/23 03:54:48;;;;;;;24.55;7.47;;;;;;;;;;5015007;28;20557;-67
2022/11/23 03:57:14;;;;;;;20.80;8.10;;;;;;;;;;5026663;28;20179;-66
2022/11/23 03:59:39;;;;;;;19.45;7.22;;;;;;;;;;5029458;28;20273;-66
2022/11/23 04:02:06;;;;;;;20.05;6.78;;;;;;;;;;5019900;28;20205;-67
2022/11/23 04:04:31;;;;;;;18.40;6.70;;;;;;;;;;5024738;28;20186;-66
2022/11/23 04:06:57;;;;;;;15.43;6.57;;;;;;;;;;5020898;28;20186;-67
2022/11/23 04:09:22;;;;;;;24.35;7.05;;;;;;;;;;5030243;28;20185;-67
2022/11/23 04:11:48;;;;;;;17.35;6.50;;;;;;;;;;5028553;28;20217;-67
2022/11/23 04:14:13;;;;;;;20.27;6.63;;;;;;;;;;5021246;28;20532;-67
2022/11/23 04:16:38;;;;;;;16.90;6.85;;;;;;;;;;5015855;28;20507;-67
2022/11/23 04:19:04;;;;;;;19.80;6.68;;;;;;;;;;5029135;28;20354;-67
2022/11/23 04:21:29;;;;;;;15.70;6.20;;;;;;;;;;5028811;28;20650;-66
2022/11/23 04:23:54;;;;;;;14.55;5.68;;;;;;;;;;5023070;28;20187;-67
2022/11/23 04:26:20;;;;;;;17.63;5.50;;;;;;;;;;5030980;28;20186;-67
2022/11/23 04:28:45;;;;;;;18.02;6.35;;;;;;;;;;5030770;28;20179;-67
2022/11/23 04:31:10;;;;;;;20.83;6.60;;;;;;;;;;5019834;28;20178;-67
2022/11/23 04:33:36;;;;;;;17.75;5.82;;;;;;;;;;5023524;28;20330;-67
2022/11/23 04:36:01;;;;;;;16.20;6.38;;;;;;;;;;5011516;28;20321;-67
2022/11/23 04:38:26;;;;;;;18.40;6.03;;;;;;;;;;5024520;28;20646;-67
2022/11/23 04:40:52;;;;;;;22.30;6.10;;;;;;;;;;5022484;28;20190;-67
2022/11/23 04:43:17;;;;;;;23.00;6.75;;;;;;;;;;5024333;28;20190;-67
2022/11/23 04:45:43;;;;;;;19.92;6.78;;;;;;;;;;5020135;28;20186;-67
2022/11/23 04:48:09;;;;;;;14.57;5.68;;;;;;;;;;5027417;28;20261;-67
2022/11/23 04:50:36;;;;;;;17.35;5.43;;;;;;;;;;5029862;28;20749;-67
2022/11/23 04:53:02;;;;;;;20.75;5.82;;;;;;;;;;5028750;28;20210;-67
2022/11/23 04:55:27;;;;;;;19.60;5.18;;;;;;;;;;5022422;28;20745;-67
2022/11/23 04:57:52;;;;;;;16.40;5.68;;;;;;;;;;5026154;28;20645;-67
2022/11/23 05:00:18;;;;;;;12.77;4.70;;;;;;;;;;5030528;28;20182;-67
2022/11/23 05:02:43;;;;;;;22.60;5.10;;;;;;;;;;5029019;28;20546;-67
2022/11/23 05:05:08;;;;;;;16.75;5.35;;;;;;;;;;5017577;28;20195;-67
2022/11/23 05:07:34;;;;;;;22.42;5.13;;;;;;;;;;5016033;28;20175;-67
2022/11/23 05:09:59;;;;;;;17.35;5.03;;;;;;;;;;5029197;28;20561;-67
2022/11/23 05:12:24;;;;;;;13.32;4.50;;;;;;;;;;5024079;28;20198;-67
2022/11/23 05:14:49;;;;;;;20.80;5.20;;;;;;;;;;5029473;28;20185;-67
2022/11/23 05:17:15;;;;;;;24.40;5.82;;;;;;;;;;5030192;28;20220;-67
2022/11/23 05:19:40;;;;;;;16.48;5.13;;;;;;;;;;5020294;28;20284;-67
2022/11/23 05:22:05;;;;;;;12.00;4.25;;;;;;;;;;5020494;28;20184;-67
2022/11/23 05:24:31;;;;;;;22.15;4.95;;;;;;;;;;5017427;28;20301;-67
2022/11/23 05:26:56;;;;;;;17.27;5.00;;;;;;;;;;5014546;28;20187;-67
2022/11/23 05:29:21;;;;;;;20.85;5.13;;;;;;;;;;5014549;28;21121;-67
2022/11/23 05:31:47;;;;;;;20.52;5.30;;;;;;;;;;5015787;28;20198;-67
2022/11/23 05:34:12;;;;;;;14.23;4.85;;;;;;;;;;5022854;28;20192;-67
2022/11/23 05:36:37;;;;;;;19.60;4.88;;;;;;;;;;5029870;28;20226;-67
2022/11/23 05:39:03;;;;;;;11.45;4.85;;;;;;;;;;5025369;28;20221;-67
2022/11/23 05:41:28;;;;;;;14.23;4.78;;;;;;;;;;5022262;28;20638;-67
2022/11/23 05:43:53;;;;;;;21.73;4.90;;;;;;;;;;5020516;28;20484;-67
2022/11/23 05:46:19;;;;;;;20.48;4.43;;;;;;;;;;5014786;28;20179;-67
2022/11/23 05:48:44;;;;;;;21.92;5.18;;;;;;;;;;5027125;28;20189;-67
2022/11/23 05:51:09;;;;;;;17.73;3.88;;;;;;;;;;5016903;28;20272;-67
2022/11/23 05:53:35;;;;;;;14.63;4.63;;;;;;;;;;5020569;28;20214;-67
2022/11/23 05:56:00;;;;;;;15.43;4.88;;;;;;;;;;5017360;28;20521;-67
2022/11/23 05:58:26;;;;;;;14.63;4.85;;;;;;;;;;5017324;28;20178;-67
2022/11/23 06:00:56;;;;;;;16.73;4.95;;;;;;;;;;5014028;28;20183;-67
2022/11/23 06:03:21;;;;;;;20.02;4.80;;;;;;;;;;5016793;28;20685;-67
2022/11/23 06:05:47;;;;;;;16.88;5.43;;;;;;;;;;5010216;28;20217;-67
2022/11/23 06:08:12;;;;;;;20.73;5.13;;;;;;;;;;5017853;28;20345;-67
2022/11/23 06:10:37;;;;;;;17.80;4.38;;;;;;;;;;5024410;28;20558;-67
2022/11/23 06:13:03;;;;;;;18.30;5.28;;;;;;;;;;5013854;28;20213;-67
2022/11/23 06:15:29;;;;;;;16.63;5.27;;;;;;;;;;5021380;28;20190;-67
2022/11/23 06:17:58;;;;;;;19.37;5.13;;;;;;;;;;5017215;28;20178;-67
2022/11/23 06:20:24;;;;;;;15.50;5.32;;;;;;;;;;5021690;28;20179;-67
2022/11/23 06:22:53;;;;;;;14.25;5.00;;;;;;;;;;5017720;28;20573;-67
2022/11/23 06:25:18;;;;;;;15.43;5.20;;;;;;;;;;5013720;28;20182;-67
2022/11/23 06:27:54;;;;;;;14.85;4.25;;;;;;;;;;5018541;28;20265;-67
2022/11/23 06:30:20;;;;;;;16.40;4.15;;;;;;;;;;5012943;28;20265;-67
2022/11/23 06:32:45;;;;;;;14.05;4.30;;;;;;;;;;5023190;28;20626;-67
2022/11/23 06:35:10;;;;;;;16.52;4.30;;;;;;;;;;5017225;28;20178;-67
2022/11/23 06:37:36;;;;;;;13.30;4.57;;;;;;;;;;5021154;28;20288;-67
2022/11/23 06:40:01;;;;;;;15.00;4.25;;;;;;;;;;5012753;28;20252;-67
2022/11/23 06:42:26;;;;;;;15.15;4.50;;;;;;;;;;5029597;28;20174;-67
2022/11/23 06:44:52;;;;;;;20.52;4.45;;;;;;;;;;5016362;28;20182;-67
2022/11/23 06:47:18;;;;;;;16.08;4.70;;;;;;;;;;5020974;28;20182;-67
2022/11/23 06:49:43;;;;;;;17.45;4.95;;;;;;;;;;5014814;28;20533;-67
2022/11/23 06:52:08;;;;;;;15.75;4.68;;;;;;;;;;5019486;28;20288;-66
2022/11/23 06:54:34;;;;;;;14.43;4.53;;;;;;;;;;5017197;28;20214;-66
2022/11/23 06:56:59;;;;;;;22.45;5.57;;;;;;;;;;5018354;28;20564;-66
2022/11/23 06:59:25;;;;;;;21.88;4.30;;;;;;;;;;5018393;28;20190;-66
2022/11/23 07:01:50;;;;;;;15.68;4.05;;;;;;;;;;5013056;28;20309;-66
2022/11/23 07:04:16;;;;;;;24.73;4.45;;;;;;;;;;5015116;28;20179;-66
2022/11/23 07:06:41;;;;;;;19.00;5.18;;;;;;;;;;5013449;28;20213;-66
2022/11/23 07:09:08;;;;;;;18.67;4.47;;;;;;;;;;5014664;28;20190;-66
2022/11/23 07:11:33;;;;;;;16.42;4.30;;;;;;;;;;5014631;28;20182;-66
2022/11/23 07:13:59;;;;;;;22.25;4.68;;;;;;;;;;5015981;28;20569;-67
2022/11/23 07:16:24;;;;;;;16.27;3.60;;;;;;;;;;5020733;28;20269;-67
2022/11/23 07:18:50;;;;;;;18.13;4.05;;;;;;;;;;5022079;28;20183;-67
2022/11/23 07:21:15;;;;;;;20.15;3.97;;;;;;;;;;5008009;28;20206;-67
2022/11/23 07:23:40;;;;;;;14.80;3.78;;;;;;;;;;5020402;28;20182;-66
2022/11/23 07:26:09;;;;;;;18.90;3.88;;;;;;;;;;5006645;28;20240;-66
2022/11/23 07:28:34;;;;;;;16.80;3.85;;;;;;;;;;5010460;28;20194;-66
2022/11/23 07:31:00;;;;;;;18.88;3.60;;;;;;;;;;5016149;28;20194;-66
2022/11/23 07:33:25;;;;;;;21.23;4.60;;;;;;;;;;5016206;28;20207;-66
2022/11/23 07:35:50;;;;;;;13.80;3.40;;;;;;;;;;5017380;28;20264;-66
2022/11/23 07:38:16;;;;;;;19.60;3.85;;;;;;;;;;5016666;28;20174;-67
2022/11/23 07:40:41;;;;;;;18.70;3.97;;;;;;;;;;5029634;28;20193;-67
2022/11/23 07:43:07;;;;;;;17.92;3.50;;;;;;;;;;5014310;28;20631;-67
2022/11/23 07:45:33;;;;;;;18.10;3.80;;;;;;;;;;5024749;28;20194;-66
2022/11/23 07:48:04;;;;;;;18.80;3.78;;;;;;;;;;5018476;28;20210;-66
2022/11/23 07:50:30;;;;;;;21.85;4.30;;;;;;;;;;5023365;28;20689;-66
2022/11/23 07:52:56;;;;;;;11.00;3.03;;;;;;;;;;5028743;28;20228;-67
2022/11/23 07:55:22;;;;;;;16.48;4.32;;;;;;;;;;5019596;28;20191;-67
2022/11/23 07:57:51;;;;;;;19.70;3.67;;;;;;;;;;5020800;28;20197;-67
2022/11/23 08:00:16;;;;;;;15.05;3.72;;;;;;;;;;5013457;28;20191;-67
2022/11/23 08:02:42;;;;;;;18.00;3.97;;;;;;;;;;5024726;28;20185;-67
2022/11/23 08:05:07;;;;;;;15.18;3.70;;;;;;;;;;5023918;28;20187;-67
2022/11/23 08:07:32;;;;;;;18.25;3.03;;;;;;;;;;5031735;28;20186;-67
2022/11/23 08:09:58;;;;;;;18.42;3.40;;;;;;;;;;5030164;28;20188;-67
2022/11/23 08:12:23;;;;;;;14.57;4.10;;;;;;;;;;5019731;28;20269;-67
2022/11/23 08:14:48;;;;;;;24.92;3.97;;;;;;;;;;5016151;28;20273;-67
2022/11/23 08:17:14;;;;;;;15.88;3.20;;;;;;;;;;5030422;28;20182;-67
2022/11/23 08:19:39;;;;;;;17.58;3.60;;;;;;;;;;5029164;28;20693;-67
2022/11/23 08:22:04;;;;;;;19.42;2.88;;;;;;;;;;5030025;28;20175;-67
2022/11/23 08:24:30;;;;;;;27.02;3.35;;;;;;;;;;5024746;28;20186;-67
2022/11/23 08:26:55;;;;;;;18.05;2.75;;;;;;;;;;5027122;28;20636;-67
2022/11/23 08:29:20;;;;;;;25.27;3.58;;;;;;;;;;5017083;28;20248;-67
2022/11/23 08:31:46;;;;;;;16.73;2.88;;;;;;;;;;5012859;28;20229;-67
2022/11/23 08:34:12;;;;;;;18.38;2.97;;;;;;;;;;5018159;28;20305;-67
2022/11/23 08:36:38;;;;;;;18.38;3.08;;;;;;;;;;5015944;28;20235;-67
2022/11/23 08:39:03;;;;;;;15.23;2.78;;;;;;;;;;5027774;28;20308;-67
2022/11/23 08:41:29;;;;;;;12.10;2.60;;;;;;;;;;5031275;28;20216;-67
2022/11/23 08:43:54;;;;;;;16.27;3.08;;;;;;;;;;5017690;28;20182;-67
2022/11/23 08:46:19;;;;;;;18.25;3.85;;;;;;;;;;5028592;28;20212;-67
2022/11/23 08:48:45;;;;;;;20.80;2.70;;;;;;;;;;5026054;28;20185;-67
2022/11/23 08:51:10;;;;;;;24.88;3.42;;;;;;;;;;5022251;28;20248;-67
2022/11/23 08:53:36;;;;;;;13.93;3.33;;;;;;;;;;5024994;28;20266;-68
2022/11/23 08:56:03;;;;;;;21.85;3.25;;;;;;;;;;5029279;28;20182;-67
2022/11/23 08:58:29;;;;;;;17.35;2.75;;;;;;;;;;5021109;28;20210;-68
2022/11/23 09:00:54;;;;;;;21.40;3.38;;;;;;;;;;5017945;28;20320;-67
2022/11/23 09:03:20;;;;;;;15.30;2.78;;;;;;;;;;5029025;28;20245;-67
2022/11/23 09:05:45;;;;;;;20.58;3.33;;;;;;;;;;5029309;28;20209;-67
2022/11/23 09:08:11;;;;;;;16.67;3.67;;;;;;;;;;5015094;28;20183;-67
2022/11/23 09:10:36;;;;;;;19.83;3.13;;;;;;;;;;5023862;28;20244;-68
2022/11/23 09:13:02;;;;;;;13.38;2.53;;;;;;;;;;5020387;28;20190;-67
2022/11/23 09:15:28;;;;;;;16.02;3.08;;;;;;;;;;5024440;28;20183;-67
2022/11/23 09:17:53;;;;;;;14.38;2.88;;;;;;;;;;5027654;28;20190;-67
2022/11/23 09:20:19;;;;;;;17.88;2.88;;;;;;;;;;5022307;28;20186;-67
2022/11/23 09:22:49;;;;;;;14.40;2.83;;;;;;;;;;5026578;28;20182;-67
2022/11/23 09:25:15;;;;;;;14.80;2.92;;;;;;;;;;5022490;28;20723;-67
2022/11/23 09:27:41;;;;;;;11.98;2.38;;;;;;;;;;5021495;28;20285;-68
2022/11/23 09:30:07;;;;;;;11.05;2.72;;;;;;;;;;5024756;28;20710;-67
2022/11/23 09:32:32;;;;;;;16.38;2.67;;;;;;;;;;5020238;28;20293;-68
2022/11/23 09:34:57;;;;;;;15.00;2.47;;;;;;;;;;5019056;28;20277;-68
2022/11/23 09:37:23;;;;;;;15.77;2.95;;;;;;;;;;5023906;28;20316;-68
2022/11/23 09:39:48;;;;;;;21.38;2.50;;;;;;;;;;5030026;28;20204;-68
2022/11/23 09:42:19;;;;;;;17.10;2.65;;;;;;;;;;5010494;28;20182;-69
2022/11/23 09:45:13;;;;;;;21.00;3.00;;;;;;;;;;5018613;28;20297;-68
2022/11/23 09:48:02;;;;;;;14.93;2.80;;;;;;;;;;5017170;28;20179;-69
2022/11/23 09:51:00;;;;;;;16.65;2.60;;;;;;;;;;5023517;28;20265;-68
2022/11/23 09:53:29;;;;;;;16.85;2.45;;;;;;;;;;5019468;28;20221;-68
2022/11/23 09:55:56;;;;;;;17.80;2.22;;;;;;;;;;5015487;28;20186;-68
2022/11/23 09:58:26;;;;;;;12.65;2.03;;;;;;;;;;5018345;28;20640;-68
2022/11/23 10:01:03;;;;;;;13.25;2.15;;;;;;;;;;5015246;28;20190;-68
2022/11/23 10:03:34;;;;;;;18.15;2.50;;;;;;;;;;5014187;28;20265;-67
2022/11/23 10:06:16;;;;;;;18.67;2.72;;;;;;;;;;5019999;28;20178;-68
2022/11/23 10:09:04;;;;;;;12.88;2.25;;;;;;;;;;5028697;28;20181;-68
2022/11/23 10:11:48;;;;;;;13.23;1.90;;;;;;;;;;5010934;28;20190;-67
2022/11/23 10:14:32;;;;;;;12.23;1.85;;;;;;;;;;5019154;28;20206;-68
2022/11/23 10:17:02;;;;;;;10.07;1.83;;;;;;;;;;5015730;28;20188;-67
2022/11/23 10:19:51;;;;;;;11.57;2.33;;;;;;;;;;5011770;28;20207;-67
2022/11/23 10:22:45;;;;;;;12.55;2.40;;;;;;;;;;5015399;28;20613;-67
2022/11/23 10:25:17;;;;;;;8.77;2.13;;;;;;;;;;5020377;28;20703;-67
2022/11/23 10:27:45;;;;;;;11.23;2.55;;;;;;;;;;5012798;28;20197;-67
2022/11/23 10:30:13;;;;;;;12.07;2.08;;;;;;;;;;5024786;28;20265;-68
2022/11/23 10:32:43;;;;;;;11.05;2.47;;;;;;;;;;5014760;28;20671;-68
2022/11/23 10:35:15;;;;;;;11.82;1.92;;;;;;;;;;5029344;28;20328;-68
2022/11/23 10:37:41;;;;;;;12.27;2.50;;;;;;;;;;5016807;28;20245;-68
2022/11/23 10:40:20;;;;;;;8.20;2.13;;;;;;;;;;5025610;28;20537;-68
2022/11/23 10:43:17;;;;;;;14.75;2.65;;;;;;;;;;5013290;28;20267;-68
2022/11/23 10:45:42;;;;;;;13.05;2.15;;;;;;;;;;5017838;28;20687;-67
2022/11/23 10:48:08;;;;;;;11.55;1.98;;;;;;;;;;5014542;28;20187;-68
2022/11/23 10:50:39;;;;;;;11.75;1.65;;;;;;;;;;5022246;28;20213;-68
2022/11/23 10:53:05;;;;;;;8.32;1.65;;;;;;;;;;5028398;28;20194;-68
2022/11/23 10:55:44;;;;;;;10.40;1.80;;;;;;;;;;5020725;28;20182;-67
2022/11/23 10:58:25;;;;;;;13.15;2.38;;;;;;;;;;5012698;28;20269;-68
2022/11/23 11:00:59;;;;;;;10.93;1.65;;;;;;;;;;5016283;28;20376;-68
2022/11/23 11:03:24;;;;;;;8.05;1.73;;;;;;;;;;5015623;28;20185;-68
2022/11/23 11:05:50;;;;;;;12.40;1.92;;;;;;;;;;5018355;28;20190;-68
2022/11/23 11:08:18;;;;;;;13.45;1.73;;;;;;;;;;5016101;28;20178;-69
2022/11/23 11:10:57;;;;;;;10.70;1.92;;;;;;;;;;5025202;28;20209;-69
2022/11/23 11:13:29;;;;;;;12.85;1.90;;;;;;;;;;5021974;28;20644;-68
2022/11/23 11:16:01;;;;;;;10.15;2.20;;;;;;;;;;5019936;28;20590;-69
2022/11/23 11:18:29;;;;;;;12.95;1.77;;;;;;;;;;5021201;28;20475;-69
2022/11/23 11:21:16;;;;;;;12.45;1.73;;;;;;;;;;5023357;28;20190;-69
2022/11/23 11:23:46;;;;;;;12.27;1.67;;;;;;;;;;5021138;28;20229;-69
2022/11/23 11:26:20;;;;;;;8.93;1.52;;;;;;;;;;5006460;28;20241;-69
2022/11/23 11:28:49;;;;;;;9.10;2.20;;;;;;;;;;5021529;28;20188;-69
2022/11/23 11:31:24;;;;;;;9.95;1.70;;;;;;;;;;5021976;28;20544;-69
2022/11/23 11:33:57;;;;;;;7.90;1.55;;;;;;;;;;5014091;28;20197;-68
2022/11/23 11:36:24;;;;;;;14.60;2.08;;;;;;;;;;5023942;28;20309;-69
2022/11/23 11:38:52;;;;;;;10.48;1.65;;;;;;;;;;5007709;28;20182;-69
2022/11/23 11:41:23;;;;;;;16.25;2.00;;;;;;;;;;5010874;28;20609;-69
2022/11/23 11:43:57;;;;;;;6.82;1.40;;;;;;;;;;5012974;28;20175;-69
2022/11/23 11:46:30;;;;;;;11.43;1.98;;;;;;;;;;5012283;28;20625;-69
2022/11/23 11:49:07;;;;;;;8.55;1.70;;;;;;;;;;5013319;28;20603;-69
2022/11/23 11:51:43;;;;;;;9.10;1.55;;;;;;;;;;5017250;28;20265;-68
2022/11/23 11:54:19;;;;;;;12.18;2.00;;;;;;;;;;5026010;28;20570;-68
2022/11/23 11:57:00;;;;;;;10.18;1.63;;;;;;;;;;5023988;28;20604;-69
2022/11/23 11:59:41;;;;;;;8.68;1.75;;;;;;;;;;5017869;28;20171;-69
2022/11/23 12:02:35;;;;;;;8.68;1.80;;;;;;;;;;5011484;28;20190;-69
2022/11/23 12:05:29;;;;;;;8.45;1.60;;;;;;;;;;5014390;28;20182;-69
2022/11/23 12:08:32;;;;;;;10.98;1.50;;;;;;;;;;5024446;28;20236;-69
2022/11/23 12:11:00;;;;;;;9.65;2.00;;;;;;;;;;5013437;28;20195;-69
2022/11/23 12:13:30;;;;;;;9.00;1.40;;;;;;;;;;5011164;28;20214;-68
2022/11/23 12:16:02;;;;;;;10.95;2.15;;;;;;;;;;5022145;28;20190;-69
2022/11/23 12:18:49;;;;;;;12.63;1.85;;;;;;;;;;5023477;28;20702;-69
2022/11/23 12:21:53;;;;;;;12.32;1.75;;;;;;;;;;5028361;28;20684;-69
2022/11/23 12:24:33;;;;;;;10.60;1.90;;;;;;;;;;5020727;28;20314;-68
2022/11/23 12:27:19;;;;;;;6.38;1.42;;;;;;;;;;5020108;28;20601;-68
2022/11/23 12:30:17;;;;;;;11.05;1.67;;;;;;;;;;5012566;28;20191;-69
2022/11/23 12:33:10;;;;;;;11.38;1.67;;;;;;;;;;5012272;28;20778;-68
2022/11/23 12:35:55;;;;;;;6.85;1.30;;;;;;;;;;5027167;28;20187;-68
2022/11/23 12:38:29;;;;;;;7.43;1.60;;;;;;;;;;5017674;28;20522;-68
2022/11/23 12:41:07;;;;;;;11.18;1.60;;;;;;;;;;5015446;28;20501;-68
2022/11/23 12:44:14;;;;;;;12.32;2.30;;;;;;;;;;5015265;28;20591;-68
2022/11/23 12:46:52;;;;;;;10.85;1.65;;;;;;;;;;5025135;28;20709;-68
2022/11/23 12:49:37;;;;;;;9.10;1.33;;;;;;;;;;5021521;28;20178;-68
2022/11/23 12:52:56;;;;;;;8.35;1.63;;;;;;;;;;5025231;28;20672;-68
2022/11/23 12:55:33;;;;;;;11.20;1.80;;;;;;;;;;5011629;28;20313;-68
2022/11/23 12:58:17;;;;;;;9.60;1.67;;;;;;;;;;5019036;28;20569;-68
2022/11/23 13:00:51;;;;;;;8.38;1.50;;;;;;;;;;5017897;28;20182;-68
2022/11/23 13:03:54;;;;;;;6.38;1.48;;;;;;;;;;5028482;28;20181;-68
2022/11/23 13:06:47;;;;;;;4.57;1.48;;;;;;;;;;5016859;28;20178;-68
2022/11/23 13:09:40;;;;;;;10.52;1.45;;;;;;;;;;5009034;28;20732;-68
2022/11/23 13:12:23;;;;;;;8.88;1.50;;;;;;;;;;5015234;28;20603;-68
2022/11/23 13:15:09;;;;;;;6.10;1.60;;;;;;;;;;5023682;28;20565;-68
2022/11/23 13:17:42;;;;;;;5.80;1.38;;;;;;;;;;5015305;28;20677;-68
2022/11/23 13:20:39;;;;;;;7.40;1.60;;;;;;;;;;5014209;28;20509;-68
2022/11/23 13:23:05;;;;;;;9.80;1.30;;;;;;;;;;5029419;28;20277;-68
2022/11/23 13:25:31;;;;;;;7.95;1.33;;;;;;;;;;5030046;28;20658;-71
2022/11/23 13:28:00;;;;;;;15.10;1.77;;;;;;;;;;5020075;28;20183;-67
2022/11/23 13:30:35;;;;;;;7.60;1.33;;;;;;;;;;5023212;28;20218;-67
2022/11/23 13:33:16;;;;;;;11.70;1.63;;;;;;;;;;5016485;28;20221;-67
2022/11/23 13:35:41;;;;;;;6.43;1.30;;;;;;;;;;5016356;28;20193;-67
2022/11/23 13:38:12;;;;;;;5.68;1.10;;;;;;;;;;5029806;28;20186;-68
2022/11/23 13:40:38;;;;;;;5.97;1.38;;;;;;;;;;5013726;28;20198;-68
2022/11/23 13:43:14;;;;;;;10.00;1.45;;;;;;;;;;5015062;28;20175;-68
2022/11/23 13:45:40;;;;;;;12.23;1.75;;;;;;;;;;5014132;28;20572;-68
2022/11/23 13:48:15;;;;;;;5.07;1.20;;;;;;;;;;5018474;28;20178;-68
2022/11/23 13:50:46;;;;;;;9.15;1.85;;;;;;;;;;5017995;28;20177;-68
2022/11/23 13:53:25;;;;;;;6.95;1.30;;;;;;;;;;5025035;28;20214;-67
2022/11/23 13:55:56;;;;;;;7.88;1.20;;;;;;;;;;5019924;28;20180;-67
2022/11/23 13:58:22;;;;;;;5.78;1.30;;;;;;;;;;5013338;28;20191;-67
2022/11/23 14:00:55;;;;;;;9.95;1.63;;;;;;;;;;5021685;28;20182;-67
2022/11/23 14:03:50;;;;;;;9.60;1.50;;;;;;;;;;5015018;28;20191;-67
2022/11/23 14:06:44;;;;;;;9.05;1.60;;;;;;;;;;5012136;28;20190;-67
2022/11/23 14:09:31;;;;;;;10.63;1.58;;;;;;;;;;5025764;28;20182;-67
2022/11/23 14:12:22;;;;;;;5.25;1.42;;;;;;;;;;5015349;28;20552;-67
2022/11/23 14:14:57;;;;;;;9.02;1.50;;;;;;;;;;5024901;28;20535;-67
2022/11/23 14:17:52;;;;;;;9.15;1.50;;;;;;;;;;5029371;28;20707;-67
2022/11/23 14:20:42;;;;;;;6.25;1.83;;;;;;;;;;5012632;28;20261;-68
2022/11/23 14:23:36;;;;;;;7.18;1.48;;;;;;;;;;5020639;28;20499;-67
2022/11/23 14:26:40;;;;;;;6.93;1.13;;;;;;;;;;5008722;28;20190;-67
2022/11/23 14:29:38;;;;;;;10.25;1.33;;;;;;;;;;5023929;28;20552;-68
2022/11/23 14:32:14;;;;;;;7.35;1.15;;;;;;;;;;5015831;28;20251;-67
2022/11/23 14:35:17;;;;;;;10.32;1.40;;;;;;;;;;5027201;28;20181;-67
2022/11/23 14:38:01;;;;;;;6.70;1.40;;;;;;;;;;5017556;28;20284;-67
2022/11/23 14:40:36;;;;;;;6.03;1.00;;;;;;;;;;5016738;28;20272;-67
2022/11/23 14:43:03;;;;;;;7.55;1.25;;;;;;;;;;5015238;28;20186;-67
2022/11/23 14:45:32;;;;;;;6.63;1.20;;;;;;;;;;5020097;28;20568;-67
2022/11/23 14:48:20;;;;;;;6.18;1.20;;;;;;;;;;5018706;28;20533;-68
2022/11/23 14:50:56;;;;;;;5.53;1.33;;;;;;;;;;5017156;28;20174;-67